Time;durP1;ratioP1;P1;durP2;ratioP2;P2;SDS_P1;SDS_P2;PMS_P1;PMS_P2;Temp;Humidity;BMP_temperature;BMP_pressure;BME280_temperature;BME280_humidity;BME280_pressure;Samples;Min_cycle;Max_cycle;Signal;HPM_P1;HPM_P2
2023/12/19 00:01:48;;;;;;;87.85;44.22;;;7.00;99.90;;;;;;6166051;23;20060;-93
2023/12/19 00:04:16;;;;;;;91.77;43.77;;;7.10;99.90;;;;;;6165599;23;20013;-93
2023/12/19 00:06:48;;;;;;;93.80;44.60;;;7.00;99.90;;;;;;6190762;23;20040;-93
2023/12/19 00:09:21;;;;;;;90.82;43.95;;;6.20;99.90;;;;;;6167081;23;20020;-93
2023/12/19 00:11:49;;;;;;;83.60;43.17;;;7.00;99.90;;;;;;6142449;23;20444;-93
2023/12/19 00:14:18;;;;;;;86.20;39.58;;;7.10;99.90;;;;;;6191361;23;20023;-94
2023/12/19 00:16:46;;;;;;;76.55;38.13;;;7.10;99.90;;;;;;6165936;23;20022;-93
2023/12/19 00:19:12;;;;;;;66.50;37.38;;;7.10;99.90;;;;;;6166602;23;20020;-93
2023/12/19 00:21:49;;;;;;;70.30;38.43;;;7.10;99.90;;;;;;6190872;23;20074;-92
2023/12/19 00:24:14;;;;;;;76.07;34.97;;;7.10;99.90;;;;;;6166610;23;20016;-94
2023/12/19 00:26:45;;;;;;;73.63;36.23;;;7.20;99.90;;;;;;6165395;23;20017;-93
2023/12/19 00:29:13;;;;;;;65.03;33.65;;;7.20;99.90;;;;;;6165480;23;20024;-93
2023/12/19 00:31:47;;;;;;;66.93;33.67;;;7.40;99.90;;;;;;6190813;23;20048;-95
2023/12/19 00:34:15;;;;;;;65.20;35.47;;;7.20;99.90;;;;;;6142873;23;20020;-94
2023/12/19 00:36:41;;;;;;;49.58;27.90;;;7.20;99.90;;;;;;6190665;23;20091;-92
2023/12/19 00:39:11;;;;;;;49.67;27.50;;;7.20;99.90;;;;;;6166571;23;20059;-94
2023/12/19 00:41:42;;;;;;;54.17;27.67;;;7.20;99.90;;;;;;6165486;23;20064;-93
2023/12/19 00:44:17;;;;;;;53.60;28.88;;;7.20;99.90;;;;;;6142489;23;20012;-94
2023/12/19 00:46:43;;;;;;;53.88;29.13;;;7.00;99.90;;;;;;6165562;23;20020;-93
2023/12/19 00:49:12;;;;;;;57.63;29.73;;;7.20;99.90;;;;;;6165935;23;20027;-94
2023/12/19 00:51:43;;;;;;;55.72;29.63;;;7.30;99.90;;;;;;6165298;23;20449;-93
2023/12/19 00:54:09;;;;;;;61.03;32.30;;;6.30;99.90;;;;;;6165994;23;20479;-93
2023/12/19 00:56:42;;;;;;;56.00;28.40;;;8.00;99.90;;;;;;6165711;23;20092;-94
2023/12/19 00:59:10;;;;;;;53.60;29.20;;;7.20;99.90;;;;;;6165630;23;20079;-93
2023/12/19 01:01:36;;;;;;;65.75;33.03;;;7.20;99.90;;;;;;6165802;23;20013;-93
2023/12/19 01:04:03;;;;;;;58.73;31.40;;;6.90;99.90;;;;;;6165542;23;20039;-94
2023/12/19 01:06:29;;;;;;;55.35;30.35;;;7.30;99.90;;;;;;6165549;23;20017;-93
2023/12/19 01:09:01;;;;;;;65.13;33.65;;;7.30;99.90;;;;;;6164908;23;20071;-93
2023/12/19 01:11:27;;;;;;;59.83;32.25;;;7.30;99.90;;;;;;6165743;23;20023;-93
2023/12/19 01:13:55;;;;;;;64.17;30.50;;;7.30;99.90;;;;;;6165305;23;20017;-93
2023/12/19 01:16:28;;;;;;;50.95;27.77;;;7.10;99.90;;;;;;6165539;23;20063;-94
2023/12/19 01:18:56;;;;;;;54.20;29.63;;;7.30;99.90;;;;;;6165547;23;20095;-93
2023/12/19 01:21:25;;;;;;;56.35;30.02;;;7.20;99.90;;;;;;6165289;23;20017;-93
2023/12/19 01:23:54;;;;;;;50.45;26.52;;;7.20;99.90;;;;;;6165861;23;20314;-93
2023/12/19 01:26:20;;;;;;;53.30;29.93;;;7.30;99.90;;;;;;6165722;23;20074;-93
2023/12/19 01:28:48;;;;;;;52.53;28.65;;;7.20;99.90;;;;;;6164898;23;20052;-93
2023/12/19 01:31:16;;;;;;;50.55;27.33;;;7.20;99.90;;;;;;6189768;23;20020;-93
2023/12/19 01:33:42;;;;;;;46.58;26.08;;;7.30;99.90;;;;;;6165057;23;20023;-92
2023/12/19 01:36:08;;;;;;;51.70;29.03;;;7.10;99.90;;;;;;6189266;23;20021;-93
2023/12/19 01:38:39;;;;;;;57.53;28.70;;;7.10;99.90;;;;;;6189889;23;20071;-93
2023/12/19 01:41:08;;;;;;;54.42;27.75;;;6.40;99.90;;;;;;6141589;23;20021;-93
2023/12/19 01:43:36;;;;;;;48.92;26.77;;;7.20;99.90;;;;;;6165302;23;20091;-94
2023/12/19 01:46:08;;;;;;;46.50;25.88;;;6.80;99.90;;;;;;6141348;23;20020;-94
2023/12/19 01:48:37;;;;;;;43.83;25.23;;;7.20;99.90;;;;;;6164982;23;20115;-92
2023/12/19 01:51:05;;;;;;;43.85;22.83;;;7.20;99.90;;;;;;6165934;23;20344;-93
2023/12/19 01:53:34;;;;;;;37.00;22.03;;;7.30;99.90;;;;;;6165133;23;20023;-93
2023/12/19 01:56:01;;;;;;;35.72;21.05;;;7.20;99.90;;;;;;6140531;23;20031;-93
2023/12/19 01:58:30;;;;;;;34.25;19.80;;;7.20;99.90;;;;;;6165157;23;20021;-93
2023/12/19 02:00:56;;;;;;;32.63;19.75;;;7.20;99.90;;;;;;6164815;23;20024;-93
2023/12/19 02:03:27;;;;;;;37.85;21.10;;;7.10;99.90;;;;;;6189978;23;20040;-95
2023/12/19 02:05:56;;;;;;;37.80;20.33;;;7.30;99.90;;;;;;6164784;23;20090;-93
2023/12/19 02:08:22;;;;;;;37.03;19.70;;;7.20;99.90;;;;;;6189904;23;20448;-94
2023/12/19 02:10:48;;;;;;;30.48;19.00;;;7.40;99.90;;;;;;6164998;23;20013;-93
2023/12/19 02:13:17;;;;;;;31.07;18.13;;;7.20;99.90;;;;;;6165167;23;20088;-93
2023/12/19 02:15:47;;;;;;;32.58;19.58;;;6.50;99.90;;;;;;6165025;23;20052;-94
2023/12/19 02:18:14;;;;;;;38.47;20.40;;;6.50;99.90;;;;;;6164767;23;20070;-93
2023/12/19 02:20:43;;;;;;;32.33;20.50;;;7.30;99.90;;;;;;6165125;23;20072;-93
2023/12/19 02:23:16;;;;;;;28.50;18.23;;;7.30;99.90;;;;;;6164509;23;20047;-93
2023/12/19 02:25:52;;;;;;;35.20;20.40;;;7.20;99.90;;;;;;6163880;23;20052;-93
2023/12/19 02:28:30;;;;;;;37.40;22.13;;;7.30;99.90;;;;;;6166000;23;20027;-93
2023/12/19 02:30:56;;;;;;;34.38;19.27;;;7.30;99.90;;;;;;6141610;23;20155;-94
2023/12/19 02:33:27;;;;;;;39.57;21.70;;;7.20;99.90;;;;;;6164828;23;20060;-93
2023/12/19 02:35:53;;;;;;;33.13;20.85;;;6.20;99.90;;;;;;6140220;23;20017;-93
2023/12/19 02:38:21;;;;;;;32.87;19.37;;;6.70;99.90;;;;;;6164511;23;20027;-93
2023/12/19 02:40:46;;;;;;;31.70;19.27;;;7.10;99.90;;;;;;6139891;23;20059;-94
2023/12/19 02:43:14;;;;;;;36.00;19.33;;;7.20;99.90;;;;;;6164412;23;20012;-93
2023/12/19 02:45:43;;;;;;;34.92;19.30;;;7.10;99.90;;;;;;6164907;23;20056;-93
2023/12/19 02:48:13;;;;;;;31.08;19.75;;;7.10;99.90;;;;;;6164427;23;20075;-93
2023/12/19 02:50:45;;;;;;;31.40;18.77;;;7.10;99.90;;;;;;6189366;23;20027;-93
2023/12/19 02:53:10;;;;;;;30.48;17.73;;;7.10;99.90;;;;;;6165124;23;20020;-93
2023/12/19 02:55:36;;;;;;;25.77;16.17;;;7.10;99.90;;;;;;6164411;23;20029;-92
2023/12/19 02:58:05;;;;;;;25.30;15.63;;;7.10;99.90;;;;;;6189002;23;20250;-93
2023/12/19 03:00:33;;;;;;;26.48;16.25;;;7.10;99.90;;;;;;6140711;23;20048;-92
2023/12/19 03:03:04;;;;;;;26.58;15.45;;;7.10;99.90;;;;;;6163516;23;20052;-92
2023/12/19 03:05:32;;;;;;;25.80;16.65;;;7.10;99.90;;;;;;6164738;23;20028;-93
2023/12/19 03:08:00;;;;;;;27.77;17.67;;;7.10;99.90;;;;;;6164094;23;20074;-92
2023/12/19 03:10:26;;;;;;;28.20;16.73;;;6.50;99.90;;;;;;6164640;23;20060;-93
2023/12/19 03:12:56;;;;;;;22.17;15.20;;;7.10;99.90;;;;;;6163865;23;20017;-92
2023/12/19 03:15:32;;;;;;;21.17;14.10;;;7.00;99.90;;;;;;6189269;23;20248;-93
2023/12/19 03:17:57;;;;;;;24.38;14.85;;;6.90;99.90;;;;;;6188983;23;20048;-93
2023/12/19 03:20:25;;;;;;;22.97;14.27;;;7.10;99.90;;;;;;6140010;23;20043;-92
2023/12/19 03:22:51;;;;;;;23.02;15.15;;;7.00;99.90;;;;;;6139378;23;20013;-92
2023/12/19 03:25:17;;;;;;;22.33;14.77;;;7.00;99.90;;;;;;6188659;23;20017;-92
2023/12/19 03:27:46;;;;;;;25.65;15.18;;;6.30;99.90;;;;;;6164635;23;20059;-92
2023/12/19 03:30:15;;;;;;;20.43;13.80;;;7.00;99.90;;;;;;6163031;23;20025;-92
2023/12/19 03:32:41;;;;;;;25.40;14.75;;;7.20;99.90;;;;;;6189926;23;20460;-93
2023/12/19 03:35:11;;;;;;;22.17;14.70;;;6.70;99.90;;;;;;6190566;23;20024;-92
2023/12/19 03:37:37;;;;;;;23.23;15.20;;;7.00;99.90;;;;;;6141846;23;20017;-93
2023/12/19 03:40:05;;;;;;;27.67;16.47;;;7.00;99.90;;;;;;6165498;23;20022;-92
2023/12/19 03:42:33;;;;;;;24.92;14.73;;;7.00;99.90;;;;;;6166480;23;20020;-92
2023/12/19 03:45:00;;;;;;;24.75;15.38;;;7.00;99.90;;;;;;6165819;23;20024;-93
2023/12/19 03:47:25;;;;;;;25.40;15.18;;;7.00;99.90;;;;;;6191230;23;20025;-92
2023/12/19 03:49:56;;;;;;;28.57;17.73;;;7.00;99.90;;;;;;6166239;23;20016;-93
2023/12/19 03:52:25;;;;;;;23.30;15.02;;;6.90;99.90;;;;;;6190922;23;20024;-91
2023/12/19 03:54:50;;;;;;;25.98;15.55;;;6.30;99.90;;;;;;6166262;23;20020;-93
2023/12/19 03:57:16;;;;;;;23.00;14.67;;;7.00;99.90;;;;;;6165756;23;20080;-92
2023/12/19 03:59:45;;;;;;;25.13;14.20;;;6.60;99.90;;;;;;6166394;23;20027;-92
2023/12/19 04:02:11;;;;;;;22.98;13.52;;;7.00;99.90;;;;;;6165137;23;20471;-92
2023/12/19 04:04:48;;;;;;;21.67;13.90;;;7.00;99.90;;;;;;6166019;23;20042;-93
2023/12/19 04:07:19;;;;;;;20.85;15.93;;;7.00;99.90;;;;;;6165635;23;20047;-93
2023/12/19 04:09:47;;;;;;;23.00;13.85;;;6.90;99.90;;;;;;6191010;23;20014;-92
2023/12/19 04:12:15;;;;;;;25.33;16.50;;;6.90;99.90;;;;;;6165604;23;20048;-93
2023/12/19 04:14:40;;;;;;;24.10;15.13;;;7.00;99.90;;;;;;6165989;23;20039;-93
2023/12/19 04:17:10;;;;;;;26.83;14.73;;;7.00;99.90;;;;;;6166110;23;20104;-92
2023/12/19 04:19:41;;;;;;;26.15;15.98;;;6.90;99.90;;;;;;6190910;23;20460;-93
2023/12/19 04:22:12;;;;;;;28.05;16.80;;;7.00;99.90;;;;;;6165921;23;20016;-93
2023/12/19 04:24:39;;;;;;;22.65;14.90;;;6.90;99.90;;;;;;6165855;23;20440;-92
2023/12/19 04:27:04;;;;;;;;;;;6.90;99.90;;;;;;6165997;23;20460;-93
2023/12/19 04:29:32;;;;;;;26.45;15.77;;;6.90;99.90;;;;;;6190981;23;19943;-93
2023/12/19 04:32:05;;;;;;;23.73;15.75;;;6.90;99.90;;;;;;6165872;23;20103;-93
2023/12/19 04:34:31;;;;;;;21.45;14.80;;;6.90;99.90;;;;;;6141752;23;20023;-93
2023/12/19 04:37:00;;;;;;;27.40;15.27;;;6.90;99.90;;;;;;6165887;23;20020;-93
2023/12/19 04:39:26;;;;;;;25.90;14.73;;;6.90;99.90;;;;;;6165184;23;20024;-93
2023/12/19 04:41:57;;;;;;;23.30;13.83;;;6.90;99.90;;;;;;6141387;23;20016;-94
2023/12/19 04:44:26;;;;;;;19.33;12.07;;;6.00;99.90;;;;;;6164743;23;20013;-94
2023/12/19 04:46:54;;;;;;;23.02;13.38;;;7.00;99.90;;;;;;6165880;23;20044;-94
2023/12/19 04:49:20;;;;;;;20.48;12.30;;;6.90;99.90;;;;;;6165499;23;20020;-93
2023/12/19 04:51:56;;;;;;;;;;;;;;;;;;;;;
2023/12/19 04:54:37;;;;;;;22.13;12.85;;;6.90;99.90;;;;;;6190165;23;20087;-93
2023/12/19 04:57:03;;;;;;;;;;;7.00;99.90;;;;;;6166358;23;20021;-94
2023/12/19 04:59:30;;;;;;;23.88;12.77;;;6.90;99.90;;;;;;6165331;23;19920;-94
2023/12/19 05:01:59;;;;;;;23.75;13.70;;;6.90;99.90;;;;;;6141396;23;20052;-94
2023/12/19 05:04:35;;;;;;;22.48;13.10;;;7.00;99.90;;;;;;6165125;23;20013;-94
2023/12/19 05:07:05;;;;;;;21.60;13.05;;;6.90;99.90;;;;;;6165646;23;20028;-94
2023/12/19 05:09:34;;;;;;;22.77;13.25;;;7.00;99.90;;;;;;6165388;23;20016;-94
2023/12/19 05:12:03;;;;;;;22.75;13.05;;;6.50;99.90;;;;;;6165125;23;20056;-94
2023/12/19 05:14:34;;;;;;;20.85;12.85;;;6.90;99.90;;;;;;6165519;23;20413;-94
2023/12/19 05:17:01;;;;;;;19.90;11.23;;;7.00;99.90;;;;;;6190054;23;20467;-95
2023/12/19 05:19:30;;;;;;;21.77;13.30;;;6.90;99.90;;;;;;6164775;23;20452;-95
2023/12/19 05:21:58;;;;;;;20.70;12.30;;;7.00;99.90;;;;;;6165298;23;20012;-95
2023/12/19 05:24:27;;;;;;;22.30;13.70;;;7.00;99.90;;;;;;6164946;23;20495;-95
2023/12/19 05:27:03;;;;;;;;;;;;;;;;;;;;;
2023/12/19 05:29:31;;;;;;;23.77;12.93;;;7.00;99.90;;;;;;6189241;23;20019;-95
2023/12/19 05:31:59;;;;;;;19.80;12.82;;;7.00;99.90;;;;;;6165596;23;20017;-95
2023/12/19 05:34:34;;;;;;;22.92;13.10;;;7.00;99.90;;;;;;6165212;23;20077;-96
2023/12/19 05:37:10;;;;;;;21.98;12.60;;;7.00;99.90;;;;;;6165763;23;20031;-95
2023/12/19 05:39:53;;;;;;;20.67;12.30;;;7.00;99.90;;;;;;6117239;23;20456;-94
2023/12/19 05:43:04;;;;;;;;;;;;;;;;;;;;;
2023/12/19 05:45:55;;;;;;;21.55;12.73;;;7.00;99.90;;;;;;6164581;23;20348;-95
2023/12/19 05:49:02;;;;;;;21.15;11.60;;;7.10;99.90;;;;;;6145050;23;20040;-94
2023/12/19 05:51:49;;;;;;;21.30;11.45;;;7.00;99.90;;;;;;6149052;23;20063;-96
2023/12/19 05:54:50;;;;;;;19.20;12.05;;;7.00;99.90;;;;;;6140283;23;20048;-96
2023/12/19 06:01:26;;;;;;;;;;;;;;;;;;;;;
2023/12/19 06:16:25;;;;;;;16.15;10.00;;;7.00;99.90;;;;;;6109570;23;20033;-96
2023/12/19 07:01:49;;;;;;;17.48;8.80;;;7.20;99.90;;;;;;5400639;23;15960222;-95
2023/12/19 07:04:28;;;;;;;15.48;9.05;;;7.50;99.90;;;;;;6024934;23;20030;-94
2023/12/19 07:07:53;;;;;;;;;;;;;;;;;;;;;
2023/12/19 07:10:11;;;;;;;15.88;10.07;;;7.10;99.90;;;;;;6047014;23;20078;-92
2023/12/19 07:12:40;;;;;;;13.68;9.18;;;6.70;99.90;;;;;;6026153;23;20019;-93
2023/12/19 07:15:14;;;;;;;14.32;8.65;;;7.20;99.90;;;;;;6027068;23;20022;-96
2023/12/19 07:17:42;;;;;;;15.27;9.02;;;7.20;99.90;;;;;;6028271;23;20078;-92
2023/12/19 07:20:09;;;;;;;18.90;9.45;;;7.10;99.90;;;;;;6002919;23;20023;-91
2023/12/19 07:26:58;;;;;;;;;;;;;;;;;;;;;
2023/12/19 07:29:48;;;;;;;16.17;8.77;;;6.70;99.90;;;;;;5912226;24;19919;-96
2023/12/19 07:32:46;;;;;;;;;;;;;;;;;;;;;
2023/12/19 07:35:51;;;;;;;;;;;;;;;;;;;;;
2023/12/19 07:38:27;;;;;;;18.77;10.07;;;7.30;99.90;;;;;;6050952;23;20639;-94
2023/12/19 07:45:06;;;;;;;;;;;;;;;;;;;;;
2023/12/19 07:47:36;;;;;;;15.27;10.25;;;7.30;99.90;;;;;;6043962;23;20019;-95
2023/12/19 07:50:03;;;;;;;17.00;10.68;;;6.50;99.90;;;;;;6021162;23;20054;-96
2023/12/19 07:57:10;;;;;;;;;;;;;;;;;;;;;
2023/12/19 08:04:07;;;;;;;;;;;;;;;;;;;;;
2023/12/19 08:07:14;;;;;;;;;;;;;;;;;;;;;
2023/12/19 08:13:34;;;;;;;;;;;;;;;;;;;;;
2023/12/19 08:23:40;;;;;;;;;;;;;;;;;;;;;
2023/12/19 10:00:02;;;;;;;;;;;;;;;;;;;;;
2023/12/19 10:02:59;;;;;;;;;;;;;;;;;;;;;
2023/12/19 10:05:33;;;;;;;22.10;11.75;;;7.00;99.90;;;;;;6079155;23;20092;-95
2023/12/19 10:08:40;;;;;;;21.88;12.40;;;8.10;99.90;;;;;;6076017;23;20022;-95
2023/12/19 10:12:17;;;;;;;23.05;12.70;;;8.10;99.90;;;;;;6080879;23;20058;-94
2023/12/19 10:15:57;;;;;;;;;;;;;;;;;;;;;
2023/12/19 10:19:14;;;;;;;;;;;;;;;;;;;;;
2023/12/19 10:22:26;;;;;;;;;;;;;;;;;;;;;
2023/12/19 10:25:51;;;;;;;;;;;;;;;;;;;;;
2023/12/19 10:33:26;;;;;;;;;;;;;;;;;;;;;
2023/12/19 10:40:04;;;;;;;;;;;;;;;;;;;;;
2023/12/19 10:43:23;;;;;;;19.02;11.18;;;8.10;99.90;;;;;;5857804;24;20096;-94
2023/12/19 10:49:49;;;;;;;26.42;13.77;;;7.50;99.90;;;;;;5844387;24;20108;-92
2023/12/19 10:52:36;;;;;;;22.48;12.30;;;8.20;99.90;;;;;;5797165;24;20067;-91
2023/12/19 10:55:27;;;;;;;24.20;12.93;;;8.20;99.90;;;;;;5875381;24;20095;-92
2023/12/19 11:00:55;;;;;;;20.70;11.63;;;8.20;99.90;;;;;;6084344;23;20497;-93
2023/12/19 11:04:01;;;;;;;19.95;11.63;;;8.10;99.90;;;;;;6050914;23;20100;-92
2023/12/19 11:07:17;;;;;;;;;;;;;;;;;;;;;
2023/12/19 11:12:59;;;;;;;;;;;;;;;;;;;;;
2023/12/19 11:15:33;;;;;;;23.45;13.52;;;8.20;99.90;;;;;;6097946;23;20037;-96
2023/12/19 11:18:21;;;;;;;23.30;12.75;;;7.30;99.90;;;;;;6074327;23;20026;-92
2023/12/19 11:21:13;;;;;;;;;;;8.20;99.90;;;;;;6075128;23;20451;-91
2023/12/19 11:24:18;;;;;;;25.85;14.50;;;8.20;99.90;;;;;;6076895;23;19917;-93
2023/12/19 11:27:13;;;;;;;21.83;12.57;;;8.20;99.90;;;;;;6075812;23;20081;-90
2023/12/19 11:33:38;;;;;;;25.75;13.95;;;7.70;99.90;;;;;;6045031;23;20106;-91
2023/12/19 11:36:42;;;;;;;24.45;14.80;;;8.20;99.90;;;;;;5988342;23;20035;-93
2023/12/19 11:50:15;;;;;;;;;;;;;;;;;;;;;
2023/12/19 12:01:43;;;;;;;;;;;;;;;;;;;;;
2023/12/19 19:54:45;;;;;;;10.15;6.70;;;6.80;99.90;;;;;;6222524;22;20024;31
2023/12/19 20:04:55;;;;;;;29.63;15.90;;;6.20;99.90;;;;;;6196288;23;19916;-96
2023/12/19 20:34:49;;;;;;;22.70;6.63;;;6.40;99.90;;;;;;6280723;22;20268;-96
2023/12/19 20:49:08;;;;;;;13.23;3.95;;;6.20;99.90;;;;;;6207980;22;20025;-96
2023/12/19 21:14:07;;;;;;;14.00;3.90;;;6.00;99.90;;;;;;6236037;22;20012;31
2023/12/19 21:16:46;;;;;;;12.03;4.10;;;5.90;99.90;;;;;;6161265;23;20022;-96
2023/12/19 21:23:12;;;;;;;11.90;3.50;;;5.90;99.90;;;;;;6168142;23;20025;-96
2023/12/19 21:26:16;;;;;;;10.82;2.80;;;5.70;99.90;;;;;;6136675;23;20473;-96
2023/12/19 21:29:10;;;;;;;13.38;3.40;;;4.60;99.90;;;;;;6118767;23;20017;-96
2023/12/19 21:31:38;;;;;;;12.45;3.85;;;5.80;99.90;;;;;;6088751;23;20020;-96
2023/12/19 21:34:10;;;;;;;11.63;3.40;;;5.60;99.90;;;;;;6084882;23;20021;-96
2023/12/19 21:36:55;;;;;;;12.18;3.47;;;6.00;99.90;;;;;;6108610;23;20017;-96
2023/12/19 21:39:28;;;;;;;8.63;3.40;;;5.50;99.90;;;;;;6108366;23;20020;-96
2023/12/19 21:42:17;;;;;;;14.95;4.07;;;4.50;99.90;;;;;;6140630;23;20002;-96
2023/12/19 21:44:52;;;;;;;14.32;4.75;;;4.80;99.90;;;;;;6124885;23;20018;-96
2023/12/19 21:50:37;;;;;;;13.13;3.53;;;5.40;99.90;;;;;;6108596;23;20110;-96
2023/12/19 21:53:43;;;;;;;8.45;3.13;;;5.30;99.90;;;;;;6153360;23;20354;-96
2023/12/19 21:56:53;;;;;;;18.52;3.75;;;5.30;99.90;;;;;;6098188;23;20021;-96
2023/12/19 22:00:02;;;;;;;15.40;4.05;;;5.20;99.90;;;;;;6126447;22;20016;-95
2023/12/19 22:06:34;;;;;;;13.85;4.30;;;5.20;99.90;;;;;;6219478;22;20020;-96
2023/12/19 22:09:16;;;;;;;10.52;3.47;;;5.00;99.90;;;;;;6226796;22;20455;-96
2023/12/19 22:11:45;;;;;;;13.70;3.60;;;5.00;99.90;;;;;;6202523;22;20098;-96
2023/12/19 22:14:26;;;;;;;14.48;4.80;;;5.00;99.90;;;;;;6227194;22;20016;-96
2023/12/19 22:17:45;;;;;;;12.77;4.53;;;5.10;99.90;;;;;;6228453;22;20024;-96
2023/12/19 22:20:52;;;;;;;10.85;4.10;;;4.40;99.90;;;;;;6227141;22;20024;-96
2023/12/19 22:23:57;;;;;;;;;;;;;;;;;;;;;
2023/12/19 22:30:54;;;;;;;13.65;4.15;;;4.80;99.90;;;;;;6247319;22;20110;-96
2023/12/19 22:34:16;;;;;;;;;;;;;;;;;;;;;
2023/12/19 22:44:24;;;;;;;12.15;3.50;;;5.20;99.90;;;;;;6251053;22;20016;-96
2023/12/19 22:50:59;;;;;;;15.13;3.90;;;4.50;99.90;;;;;;6160603;22;20068;-96
2023/12/19 22:53:49;;;;;;;;;;;;;;;;;;;;;
2023/12/19 22:56:46;;;;;;;;;;;;;;;;;;;;;
2023/12/19 23:00:17;;;;;;;;;;;;;;;;;;;;;
2023/12/19 23:03:22;;;;;;;12.07;3.30;;;3.50;99.90;;;;;;6249711;22;20023;-96
2023/12/19 23:06:33;;;;;;;14.50;3.25;;;4.40;99.90;;;;;;6227202;22;20019;-96
2023/12/19 23:09:17;;;;;;;9.63;3.08;;;4.60;99.90;;;;;;6227036;22;20019;-96
2023/12/19 23:12:08;;;;;;;20.30;4.10;;;4.50;99.90;;;;;;6227002;22;20045;-96
2023/12/19 23:14:56;;;;;;;13.50;3.60;;;4.40;99.90;;;;;;6221217;22;20054;-96
2023/12/19 23:17:56;;;;;;;;;;;;;;;;;;;;;
2023/12/19 23:20:38;;;;;;;9.93;3.10;;;3.50;99.90;;;;;;6205488;22;20447;-96
2023/12/19 23:23:19;;;;;;;11.98;3.15;;;4.10;99.90;;;;;;6203234;22;20106;-96
2023/12/19 23:26:23;;;;;;;5.88;2.95;;;4.60;99.90;;;;;;6206864;22;20016;-96
2023/12/19 23:29:04;;;;;;;;;;;;;;;;;;;;;
2023/12/19 23:32:01;;;;;;;11.23;3.72;;;4.70;99.90;;;;;;6211105;22;20047;-96
2023/12/19 23:34:43;;;;;;;10.52;3.30;;;4.60;99.90;;;;;;6227597;22;20432;-96
2023/12/19 23:37:36;;;;;;;17.10;4.78;;;4.60;99.90;;;;;;6202483;22;20026;-96
2023/12/19 23:40:08;;;;;;;15.18;4.88;;;4.70;99.90;;;;;;6205200;22;20103;-96
2023/12/19 23:45:41;;;;;;;14.07;3.47;;;4.70;99.90;;;;;;6211072;22;20031;-96
2023/12/19 23:48:29;;;;;;;11.93;3.65;;;4.70;99.90;;;;;;6202891;22;20069;-96
2023/12/19 23:51:18;;;;;;;15.02;4.10;;;4.90;99.90;;;;;;6203039;22;20098;-96
2023/12/19 23:57:02;;;;;;;18.75;3.40;;;5.00;99.90;;;;;;6202926;22;20024;-96
2023/12/19 23:59:52;;;;;;;14.38;3.78;;;5.10;99.90;;;;;;6227915;22;20016;-96
